createdAt,value
2018-02-05T00:00:41.331Z,89.46
2018-02-05T00:03:08.847Z,89.54
2018-02-05T00:05:36.378Z,89.47
2018-02-05T00:08:03.914Z,89.39
2018-02-05T00:10:31.475Z,89.40
2018-02-05T00:12:58.996Z,89.42
2018-02-05T00:15:26.525Z,89.53
2018-02-05T00:17:54.046Z,89.36
2018-02-05T00:20:21.562Z,89.43
2018-02-05T00:22:49.160Z,89.17
2018-02-05T00:25:16.691Z,89.23
2018-02-05T00:27:44.289Z,89.29
2018-02-05T00:30:11.818Z,89.12
2018-02-05T00:32:39.368Z,89.01
2018-02-05T00:35:06.898Z,88.79
2018-02-05T00:37:34.417Z,88.80
2018-02-05T00:40:01.976Z,88.52
2018-02-05T00:42:29.496Z,88.56
2018-02-05T00:44:57.092Z,88.52
2018-02-05T00:47:24.602Z,88.51
2018-02-05T00:49:52.138Z,88.64
2018-02-05T00:52:19.653Z,88.68
2018-02-05T00:54:47.181Z,88.49
2018-02-05T00:57:14.724Z,88.64
2018-02-05T00:59:42.261Z,88.55
2018-02-05T01:02:09.776Z,88.21
2018-02-05T01:04:37.310Z,88.36
2018-02-05T01:07:04.812Z,88.33
2018-02-05T01:09:32.328Z,88.31
2018-02-05T01:11:59.845Z,88.29
2018-02-05T01:14:27.374Z,88.37
2018-02-05T01:16:54.892Z,88.35
2018-02-05T01:19:22.524Z,88.40
2018-02-05T01:21:50.037Z,88.47
2018-02-05T01:24:17.554Z,88.50
2018-02-05T01:26:45.079Z,88.55
2018-02-05T01:29:12.613Z,88.57
2018-02-05T01:31:40.124Z,88.53
2018-02-05T01:34:07.649Z,88.65
2018-02-05T01:36:35.181Z,88.63
2018-02-05T01:39:02.712Z,88.66
2018-02-05T01:41:30.248Z,88.56
2018-02-05T01:43:57.768Z,88.66
2018-02-05T01:46:25.288Z,88.63
2018-02-05T01:48:52.807Z,88.48
2018-02-05T01:51:20.381Z,88.49
2018-02-05T01:53:47.921Z,88.51
2018-02-05T01:56:15.431Z,88.28
2018-02-05T01:58:42.956Z,88.29
2018-02-05T02:01:10.477Z,88.25
2018-02-05T02:03:37.993Z,88.09
2018-02-05T02:06:05.510Z,88.21
2018-02-05T02:08:33.092Z,87.90
2018-02-05T02:11:00.684Z,87.83
2018-02-05T02:13:28.237Z,88.04
2018-02-05T02:15:55.751Z,87.97
2018-02-05T02:18:23.303Z,87.88
2018-02-05T02:20:50.929Z,87.94
2018-02-05T02:23:18.448Z,87.96
2018-02-05T02:25:46.037Z,87.98
2018-02-05T02:28:13.569Z,88.04
2018-02-05T02:30:41.134Z,88.05
2018-02-05T02:33:08.693Z,88.14
2018-02-05T02:35:36.227Z,88.16
2018-02-05T02:38:03.780Z,88.12
2018-02-05T02:40:31.296Z,88.05
2018-02-05T02:42:58.808Z,87.97
2018-02-05T02:45:26.328Z,87.77
2018-02-05T02:47:53.858Z,87.88
2018-02-05T02:50:21.374Z,88.11
2018-02-05T02:52:48.906Z,88.48
2018-02-05T02:55:16.433Z,88.64
2018-02-05T02:57:44.017Z,88.59
2018-02-05T03:00:11.555Z,88.67
2018-02-05T03:02:39.105Z,88.65
2018-02-05T03:05:06.632Z,88.58
2018-02-05T03:07:34.161Z,88.26
2018-02-05T03:10:01.721Z,88.39
2018-02-05T03:12:29.237Z,88.40
2018-02-05T03:14:56.753Z,88.16
2018-02-05T03:17:24.272Z,88.24
2018-02-05T03:19:51.786Z,88.28
2018-02-05T03:22:19.306Z,88.07
2018-02-05T03:24:46.836Z,88.10
2018-02-05T03:27:14.352Z,87.77
2018-02-05T03:29:41.867Z,87.52
2018-02-05T03:32:09.450Z,87.32
2018-02-05T03:34:36.969Z,87.06
2018-02-05T03:37:04.493Z,87.00
2018-02-05T03:39:32.130Z,86.93
2018-02-05T03:41:59.641Z,86.98
2018-02-05T03:44:27.158Z,87.00
2018-02-05T03:46:54.707Z,87.00
2018-02-05T03:49:22.224Z,87.13
2018-02-05T03:51:49.741Z,87.21
2018-02-05T03:54:17.259Z,87.27
2018-02-05T03:56:44.769Z,87.50
2018-02-05T03:59:12.303Z,87.70
2018-02-05T04:01:39.832Z,87.51
2018-02-05T04:04:07.392Z,87.70
2018-02-05T04:06:40.576Z,87.66
2018-02-05T04:09:08.105Z,87.36
2018-02-05T04:11:35.626Z,87.45
2018-02-05T04:14:03.150Z,86.95
2018-02-05T04:16:30.685Z,86.94
2018-02-05T04:18:58.216Z,87.04
2018-02-05T04:21:25.735Z,86.95
2018-02-05T04:23:53.257Z,87.00
2018-02-05T04:26:20.768Z,86.97
2018-02-05T04:28:48.285Z,87.05
2018-02-05T04:31:15.800Z,87.14
2018-02-05T04:33:43.313Z,87.18
2018-02-05T04:36:10.830Z,87.22
2018-02-05T04:38:38.347Z,87.02
2018-02-05T04:41:05.870Z,86.96
2018-02-05T04:43:33.401Z,86.72
2018-02-05T04:46:00.952Z,86.68
2018-02-05T04:48:28.466Z,86.85
2018-02-05T04:50:56.036Z,86.85
2018-02-05T04:53:23.603Z,86.90
2018-02-05T04:55:51.165Z,87.05
2018-02-05T04:58:18.681Z,87.12
2018-02-05T05:00:46.200Z,87.18
2018-02-05T05:03:13.764Z,87.14
2018-02-05T05:05:41.284Z,87.07
2018-02-05T05:08:08.792Z,87.30
2018-02-05T05:10:36.306Z,87.32
2018-02-05T05:13:03.821Z,87.21
2018-02-05T05:15:31.332Z,87.06
2018-02-05T05:17:58.868Z,87.39
2018-02-05T05:20:26.385Z,87.49
2018-02-05T05:22:53.900Z,87.29
2018-02-05T05:25:21.417Z,87.47
2018-02-05T05:27:48.936Z,87.56
2018-02-05T05:30:16.445Z,87.64
2018-02-05T05:32:43.973Z,87.38
2018-02-05T05:35:11.488Z,87.14
2018-02-05T05:37:39.011Z,87.71
2018-02-05T05:40:06.534Z,87.86
2018-02-05T05:42:34.065Z,87.91
2018-02-05T05:45:01.589Z,87.96
2018-02-05T05:47:29.116Z,87.93
2018-02-05T05:49:56.656Z,87.94
2018-02-05T05:52:24.168Z,87.73
2018-02-05T05:54:51.682Z,87.65
2018-02-05T05:57:19.211Z,87.62
2018-02-05T05:59:46.728Z,87.47
2018-02-05T06:02:14.237Z,87.33
2018-02-05T06:04:41.749Z,87.36
2018-02-05T06:07:09.267Z,87.08
2018-02-05T06:09:36.784Z,86.93
2018-02-05T06:12:04.313Z,87.12
2018-02-05T06:14:31.831Z,87.28
2018-02-05T06:16:59.344Z,87.08
2018-02-05T06:19:26.861Z,86.98
2018-02-05T06:21:54.390Z,86.69
2018-02-05T06:24:21.906Z,86.46
2018-02-05T06:26:49.424Z,86.24
2018-02-05T06:29:16.949Z,86.16
2018-02-05T06:31:44.468Z,86.10
2018-02-05T06:34:11.997Z,86.16
2018-02-05T06:36:39.521Z,86.16
2018-02-05T06:39:07.049Z,86.22
2018-02-05T06:41:34.572Z,86.24
2018-02-05T06:44:02.110Z,85.99
2018-02-05T06:46:29.681Z,85.87
2018-02-05T06:48:57.199Z,85.85
2018-02-05T06:51:36.520Z,85.60
2018-02-05T06:54:15.960Z,85.50
2018-02-05T06:56:43.485Z,85.49
2018-02-05T06:59:11.009Z,85.24
2018-02-05T07:01:38.553Z,85.35
2018-02-05T07:04:06.107Z,85.45
2018-02-05T07:06:33.642Z,85.38
2018-02-05T07:09:01.165Z,85.18
2018-02-05T07:11:28.684Z,85.04
2018-02-05T07:13:57.045Z,85.14
2018-02-05T07:16:24.557Z,84.56
2018-02-05T07:18:52.079Z,84.37
2018-02-05T07:21:19.610Z,84.16
2018-02-05T07:23:47.160Z,84.18
2018-02-05T07:26:14.677Z,83.89
2018-02-05T07:28:42.192Z,83.58
2018-02-05T07:31:09.721Z,83.24
2018-02-05T07:33:37.236Z,82.14
2018-02-05T07:36:04.766Z,81.60
2018-02-05T07:38:32.290Z,81.91
2018-02-05T07:40:59.809Z,81.54
2018-02-05T07:43:27.336Z,81.00
2018-02-05T07:45:54.857Z,80.82
2018-02-05T07:48:22.364Z,80.85
2018-02-05T07:50:49.875Z,80.53
2018-02-05T07:53:17.380Z,80.40
2018-02-05T07:55:44.908Z,79.70
2018-02-05T07:58:12.438Z,80.22
2018-02-05T08:00:39.987Z,79.44
2018-02-05T08:03:07.511Z,79.64
2018-02-05T08:05:35.029Z,80.01
2018-02-05T08:08:02.616Z,79.37
2018-02-05T08:10:30.118Z,79.10
2018-02-05T08:12:57.647Z,78.77
2018-02-05T08:15:25.160Z,78.30
2018-02-05T08:17:52.664Z,78.63
2018-02-05T08:20:20.167Z,77.57
2018-02-05T08:22:47.681Z,77.17
2018-02-05T08:25:15.198Z,77.15
2018-02-05T08:27:42.709Z,77.01
2018-02-05T08:30:10.234Z,77.09
2018-02-05T08:32:37.747Z,76.99
2018-02-05T08:35:05.272Z,75.79
2018-02-05T08:37:32.781Z,75.78
2018-02-05T08:40:00.293Z,75.55
2018-02-05T08:42:27.802Z,75.77
2018-02-05T08:44:55.366Z,74.45
2018-02-05T08:47:22.868Z,75.00
2018-02-05T08:49:50.379Z,73.49
2018-02-05T08:52:17.893Z,72.96
2018-02-05T08:54:45.409Z,73.07
2018-02-05T08:57:12.926Z,73.02
2018-02-05T08:59:40.444Z,72.25
2018-02-05T09:02:07.970Z,72.05
2018-02-05T09:04:35.492Z,69.42
2018-02-05T09:07:03.016Z,70.22
2018-02-05T09:09:30.544Z,68.72
2018-02-05T09:11:58.052Z,68.99
2018-02-05T09:14:25.562Z,68.03
2018-02-05T09:16:53.085Z,68.07
2018-02-05T09:19:20.606Z,66.64
2018-02-05T09:21:48.108Z,67.73
2018-02-05T09:24:15.635Z,66.97
2018-02-05T09:26:43.148Z,66.71
2018-02-05T09:29:10.677Z,67.14
2018-02-05T09:31:48.324Z,65.27
2018-02-05T09:34:15.874Z,65.20
2018-02-05T09:36:43.493Z,64.83
2018-02-05T09:39:11.109Z,64.16
2018-02-05T09:41:38.635Z,63.71
2018-02-05T09:44:06.150Z,62.54
2018-02-05T09:46:34.883Z,60.53
2018-02-05T09:49:02.465Z,60.67
2018-02-05T09:51:29.983Z,59.55
2018-02-05T09:53:57.488Z,58.90
2018-02-05T09:56:25.006Z,53.85
2018-02-05T09:58:52.516Z,53.37
2018-02-05T10:01:20.032Z,53.56
2018-02-05T10:03:47.552Z,53.26
2018-02-05T10:06:15.073Z,51.05
2018-02-05T10:08:42.589Z,52.70
2018-02-05T10:11:10.093Z,51.50
2018-02-05T10:13:37.629Z,50.09
2018-02-05T10:16:05.150Z,50.99
2018-02-05T10:18:32.679Z,51.79
2018-02-05T10:21:00.192Z,48.47
2018-02-05T10:23:27.706Z,47.53
2018-02-05T10:25:55.218Z,49.82
2018-02-05T10:28:22.725Z,52.04
2018-02-05T10:30:50.244Z,51.14
2018-02-05T10:33:17.780Z,54.84
2018-02-05T10:35:45.302Z,51.41
2018-02-05T10:38:12.849Z,49.80
2018-02-05T10:40:40.361Z,51.12
2018-02-05T10:43:07.964Z,50.51
2018-02-05T10:45:36.649Z,51.67
2018-02-05T10:48:04.191Z,50.16
2018-02-05T10:50:31.704Z,48.67
2018-02-05T10:52:59.217Z,50.48
2018-02-05T10:55:26.739Z,50.45
2018-02-05T10:57:54.250Z,50.19
2018-02-05T11:00:21.772Z,51.48
2018-02-05T11:02:49.279Z,52.11
2018-02-05T11:05:16.793Z,51.68
2018-02-05T11:07:44.329Z,51.36
2018-02-05T11:10:11.995Z,52.26
2018-02-05T11:12:39.519Z,52.27
2018-02-05T11:15:07.034Z,51.90
2018-02-05T11:17:34.551Z,52.94
2018-02-05T11:20:02.065Z,52.15
2018-02-05T11:22:29.591Z,52.41
2018-02-05T11:24:57.101Z,53.02
2018-02-05T11:27:24.621Z,53.69
2018-02-05T11:29:52.131Z,54.78
2018-02-05T11:32:19.642Z,54.48
2018-02-05T11:34:47.181Z,54.37
2018-02-05T11:37:14.701Z,54.57
2018-02-05T11:39:42.217Z,55.00
2018-02-05T11:42:09.721Z,55.14
2018-02-05T11:44:37.238Z,55.25
2018-02-05T11:47:04.746Z,55.82
2018-02-05T11:49:32.281Z,56.00
2018-02-05T11:51:59.805Z,56.42
2018-02-05T11:54:27.313Z,56.78
2018-02-05T11:56:54.829Z,56.30
2018-02-05T11:59:22.359Z,56.61
2018-02-05T12:01:49.871Z,56.24
2018-02-05T12:04:17.391Z,55.75
2018-02-05T12:06:44.896Z,56.23
2018-02-05T12:09:12.407Z,55.85
2018-02-05T12:11:39.912Z,55.54
2018-02-05T12:14:07.427Z,55.95
2018-02-05T12:16:34.933Z,56.71
2018-02-05T12:19:02.454Z,56.96
2018-02-05T12:21:30.065Z,57.15
2018-02-05T12:23:57.648Z,57.36
2018-02-05T12:26:25.201Z,57.63
2018-02-05T12:28:52.712Z,57.19
2018-02-05T12:31:20.332Z,56.12
2018-02-05T12:33:47.844Z,55.98
2018-02-05T12:36:15.375Z,56.36
2018-02-05T12:38:43.732Z,57.13
2018-02-05T12:41:11.242Z,57.26
2018-02-05T12:43:38.756Z,56.84
2018-02-05T12:46:06.261Z,56.91
2018-02-05T12:48:33.773Z,56.21
2018-02-05T12:51:01.304Z,55.52
2018-02-05T12:53:28.805Z,55.10
2018-02-05T12:55:56.304Z,55.57
2018-02-05T12:58:23.823Z,54.44
2018-02-05T13:00:55.268Z,54.42
2018-02-05T13:03:28.524Z,54.48
2018-02-05T13:06:01.684Z,53.49
2018-02-05T13:08:29.179Z,53.31
2018-02-05T13:10:56.691Z,53.77
2018-02-05T13:13:24.196Z,52.87
2018-02-05T13:15:51.768Z,53.07
2018-02-05T13:18:19.279Z,53.17
2018-02-05T13:20:46.787Z,52.83
2018-02-05T13:23:14.307Z,53.11
2018-02-05T13:25:41.892Z,52.09
2018-02-05T13:28:09.461Z,52.50
2018-02-05T13:30:36.967Z,52.25
2018-02-05T13:33:04.572Z,50.45
2018-02-05T13:35:32.140Z,50.44
2018-02-05T13:37:59.641Z,50.49
2018-02-05T13:40:27.271Z,51.57
2018-02-05T13:42:54.780Z,51.32
2018-02-05T13:45:22.324Z,51.05
2018-02-05T13:47:49.832Z,49.72
2018-02-05T13:50:17.362Z,49.46
2018-02-05T13:52:44.865Z,49.93
2018-02-05T13:55:12.363Z,51.07
2018-02-05T13:57:39.870Z,50.52
2018-02-05T14:00:07.376Z,51.06
2018-02-05T14:02:34.887Z,51.89
2018-02-05T14:05:02.420Z,52.67
2018-02-05T14:07:29.929Z,53.43
2018-02-05T14:09:57.427Z,53.22
2018-02-05T14:12:24.934Z,53.19
2018-02-05T14:14:52.443Z,53.70
2018-02-05T14:17:19.953Z,53.32
2018-02-05T14:19:47.449Z,53.65
2018-02-05T14:22:14.952Z,53.35
2018-02-05T14:24:42.457Z,53.31
2018-02-05T14:27:09.960Z,53.55
2018-02-05T14:29:37.555Z,53.72
2018-02-05T14:32:05.068Z,52.95
2018-02-05T14:34:32.578Z,53.57
2018-02-05T14:37:00.125Z,54.20
2018-02-05T14:39:27.633Z,54.52
2018-02-05T14:41:55.146Z,54.00
2018-02-05T14:44:22.695Z,54.34
2018-02-05T14:46:50.221Z,53.94
2018-02-05T14:49:17.832Z,54.04
2018-02-05T14:51:45.379Z,55.03
2018-02-05T14:54:12.932Z,55.49
2018-02-05T14:56:40.445Z,54.60
2018-02-05T14:59:08.017Z,54.77
2018-02-05T15:01:35.527Z,53.27
2018-02-05T15:04:03.053Z,51.96
2018-02-05T15:06:30.567Z,51.82
2018-02-05T15:08:58.081Z,52.29
2018-02-05T15:11:25.583Z,52.63
2018-02-05T15:13:53.085Z,51.91
2018-02-05T15:16:20.596Z,50.77
2018-02-05T15:18:48.121Z,51.38
2018-02-05T15:21:15.679Z,51.10
2018-02-05T15:23:43.165Z,51.72
2018-02-05T15:26:10.677Z,51.51
2018-02-05T15:28:38.202Z,51.90
2018-02-05T15:31:05.733Z,52.05
2018-02-05T15:33:33.245Z,52.42
2018-02-05T15:36:00.785Z,51.02
2018-02-05T15:38:28.315Z,51.59
2018-02-05T15:40:55.844Z,51.67
2018-02-05T15:43:23.736Z,51.33
2018-02-05T15:45:51.248Z,52.04
2018-02-05T15:48:18.764Z,51.84
2018-02-05T15:50:46.268Z,52.03
2018-02-05T15:53:13.780Z,51.81
2018-02-05T15:55:41.289Z,51.68
2018-02-05T15:58:08.813Z,51.82
2018-02-05T16:00:36.318Z,51.99
2018-02-05T17:25:00.948Z,56.51
2018-02-05T17:27:28.518Z,56.80
2018-02-05T17:29:56.067Z,57.23
2018-02-05T17:32:23.592Z,57.52
2018-02-05T17:34:51.102Z,58.31
2018-02-05T17:37:18.620Z,58.42
2018-02-05T17:39:46.131Z,58.54
2018-02-05T17:42:13.644Z,59.40
2018-02-05T17:44:41.219Z,59.76
2018-02-05T17:47:08.709Z,60.36
2018-02-05T17:49:36.231Z,60.33
2018-02-05T17:52:03.756Z,60.86
2018-02-05T17:54:31.303Z,61.39
2018-02-05T17:56:58.813Z,61.50
2018-02-05T17:59:26.343Z,62.03
2018-02-05T18:01:53.860Z,62.30
2018-02-05T18:04:21.379Z,62.74
2018-02-05T18:06:48.901Z,62.18
2018-02-05T18:09:16.418Z,62.39
2018-02-05T18:11:43.937Z,62.42
2018-02-05T18:14:11.450Z,62.47
2018-02-05T18:16:38.961Z,62.88
2018-02-05T18:19:06.472Z,62.44
2018-02-05T18:21:33.990Z,62.59
2018-02-05T18:24:01.508Z,63.38
2018-02-05T18:26:29.021Z,62.98
2018-02-05T18:28:56.533Z,63.34
2018-02-05T18:31:24.052Z,63.15
2018-02-05T18:33:51.572Z,63.17
2018-02-05T18:36:19.101Z,62.93
2018-02-05T18:38:46.613Z,62.56
2018-02-05T18:41:14.142Z,62.87
2018-02-05T18:43:41.651Z,62.95
2018-02-05T18:46:09.170Z,63.20
2018-02-05T18:48:36.681Z,62.85
2018-02-05T18:51:04.271Z,62.88
2018-02-05T18:53:31.938Z,62.94
2018-02-05T18:55:59.597Z,62.78
2018-02-05T18:58:27.236Z,63.10
2018-02-05T19:00:54.804Z,63.75
2018-02-05T19:03:22.393Z,63.60
2018-02-05T19:05:50.740Z,64.15
2018-02-05T19:08:18.329Z,64.25
2018-02-05T19:10:45.883Z,64.50
2018-02-05T19:13:13.417Z,64.96
2018-02-05T19:15:40.929Z,64.67
2018-02-05T19:18:08.471Z,65.36
2018-02-05T19:20:36.098Z,65.40
2018-02-05T19:23:03.745Z,65.46
2018-02-05T19:25:31.483Z,65.55
2018-02-05T19:27:59.185Z,65.96
2018-02-05T19:30:26.773Z,65.82
2018-02-05T19:32:55.321Z,65.66
2018-02-05T19:35:22.876Z,65.44
2018-02-05T19:37:50.400Z,65.74
2018-02-05T19:40:17.937Z,66.67
2018-02-05T19:42:45.527Z,65.95
2018-02-05T19:45:13.058Z,66.27
2018-02-05T19:47:40.584Z,65.87
2018-02-05T19:50:08.118Z,66.39
2018-02-05T19:52:35.653Z,66.20
2018-02-05T19:55:03.184Z,66.53
2018-02-05T19:57:30.723Z,66.22
2018-02-05T19:59:58.248Z,66.51
2018-02-05T20:02:25.756Z,67.26
2018-02-05T20:04:53.276Z,66.78
2018-02-05T20:07:20.809Z,66.81
2018-02-05T20:09:48.363Z,66.83
2018-02-05T20:12:15.908Z,66.59
2018-02-05T20:14:43.423Z,66.66
2018-02-05T20:17:10.973Z,66.61
2018-02-05T20:19:38.507Z,66.63
2018-02-05T20:22:06.043Z,66.37
2018-02-05T20:24:33.726Z,66.17
2018-02-05T20:27:01.374Z,66.17
2018-02-05T20:29:28.952Z,66.46
2018-02-05T20:31:56.508Z,66.70
2018-02-05T20:34:24.072Z,66.33
2018-02-05T20:36:51.604Z,66.89
2018-02-05T20:39:19.119Z,66.78
2018-02-05T20:41:46.713Z,67.09
2018-02-05T20:44:14.284Z,67.03
2018-02-05T20:46:41.839Z,66.69
2018-02-05T20:49:09.370Z,66.52
2018-02-05T20:51:36.896Z,66.62
2018-02-05T20:54:04.416Z,67.21
2018-02-05T20:56:31.953Z,66.75
2018-02-05T20:58:59.476Z,66.50
2018-02-05T21:01:27.009Z,67.09
2018-02-05T21:03:54.560Z,66.71
2018-02-05T21:06:22.112Z,66.97
2018-02-05T21:08:49.655Z,66.97
2018-02-05T21:11:17.191Z,66.97
2018-02-05T21:13:44.762Z,67.32
2018-02-05T21:16:12.272Z,67.36
2018-02-05T21:18:39.793Z,67.41
2018-02-05T21:21:07.309Z,67.47
2018-02-05T21:23:34.840Z,67.69
2018-02-05T21:26:02.396Z,67.83
2018-02-05T21:28:29.970Z,67.74
2018-02-05T21:30:57.547Z,68.20
2018-02-05T21:33:25.115Z,68.00
2018-02-05T21:35:52.656Z,67.94
2018-02-05T21:38:20.175Z,68.18
2018-02-05T21:40:47.684Z,67.80
2018-02-05T21:43:15.225Z,67.90
2018-02-05T21:45:42.749Z,67.96
2018-02-05T21:48:10.260Z,67.63
2018-02-05T21:50:37.803Z,67.85
2018-02-05T21:53:05.340Z,67.88
2018-02-05T21:55:32.878Z,68.43
2018-02-05T21:58:01.629Z,67.97
2018-02-05T22:00:29.221Z,67.85
2018-02-05T22:02:56.750Z,67.96
2018-02-05T22:05:24.282Z,67.83
2018-02-05T22:07:51.801Z,67.88
2018-02-05T22:10:19.351Z,67.75
2018-02-05T22:12:46.901Z,66.72
2018-02-05T22:15:14.441Z,67.59
2018-02-05T22:17:41.995Z,67.90
2018-02-05T22:20:09.562Z,68.18
2018-02-05T22:22:37.104Z,67.97
2018-02-05T22:25:04.626Z,67.82
2018-02-05T22:27:32.152Z,68.25
2018-02-05T22:30:00.638Z,67.93
2018-02-05T22:32:28.155Z,67.91
2018-02-05T22:34:55.693Z,67.62
2018-02-05T22:37:23.234Z,67.83
2018-02-05T22:39:50.775Z,67.69
2018-02-05T22:42:18.316Z,67.74
2018-02-05T22:44:46.812Z,67.41
2018-02-05T22:47:14.445Z,67.72
2018-02-05T22:49:42.128Z,67.86
2018-02-05T22:52:09.684Z,67.89
2018-02-05T22:54:37.360Z,67.29
2018-02-05T22:57:05.093Z,67.21
2018-02-05T22:59:32.901Z,67.45
2018-02-05T23:02:00.604Z,67.49
2018-02-05T23:04:28.165Z,67.77
2018-02-05T23:06:55.790Z,67.88
2018-02-05T23:09:23.351Z,67.62
2018-02-05T23:11:50.870Z,67.88
2018-02-05T23:14:18.412Z,68.05
2018-02-05T23:16:45.953Z,68.04
2018-02-05T23:19:13.540Z,68.39
2018-02-05T23:21:41.214Z,68.35
2018-02-05T23:24:08.935Z,69.33
2018-02-05T23:26:36.509Z,69.24
2018-02-05T23:29:04.172Z,69.27
2018-02-05T23:31:31.840Z,69.41
2018-02-05T23:33:59.504Z,69.16
2018-02-05T23:36:27.097Z,69.47
2018-02-05T23:38:54.638Z,68.63
2018-02-05T23:41:22.164Z,68.86
2018-02-05T23:43:49.734Z,68.59
2018-02-05T23:46:17.241Z,68.79
2018-02-05T23:48:44.762Z,69.05
2018-02-05T23:51:12.289Z,69.39
2018-02-05T23:53:39.922Z,69.27
2018-02-05T23:56:07.468Z,69.41
2018-02-05T23:58:35.041Z,69.51
